Milford, Utah
Current Conditions -  °F | °C
As of 5:52 AM on Thursday 18 Dec 2014 (Local Time) from KMLF Reporting Station
Broken Clouds Broken Clouds  
Wind Chill: -4°   Ceiling: 12000
Heat Index:   Visibility: 10mi
Dew Point: -1°   Wind: 9mph
Humidity: 89%   Direction: 230°SW
Pressure: 30.06"   Gusts: NA
Location:  38.4°N, 113.01°W
Report Text: KMLF 181252Z AUTO 23008KT 10SM BKN120 01/M01 A3006 RMK AO2 SLP183 T00061011 TSNO
Loading
Personal Weather Stations






























Interactive Weather Map New forecast layout! Learn more

10-Day Weather Forecast

Advertisements
Track Severe Weather on mobile